createdAt,value
2023-03-26T00:01:40.718Z,53.62
2023-03-26T00:04:08.789Z,53.83
2023-03-26T00:06:40.086Z,53.74
2023-03-26T00:09:10.886Z,54.29
2023-03-26T00:11:39.607Z,53.67
2023-03-26T00:14:07.466Z,53.96
2023-03-26T00:16:36.497Z,54.59
2023-03-26T00:19:04.637Z,54.07
2023-03-26T00:21:33.098Z,54.38
2023-03-26T00:24:05.185Z,54.47
2023-03-26T00:26:35.268Z,54.52
2023-03-26T00:29:04.515Z,54.60
2023-03-26T00:31:33.797Z,54.95
2023-03-26T00:34:04.052Z,54.38
2023-03-26T00:36:36.274Z,54.36
2023-03-26T00:39:05.944Z,55.15
2023-03-26T00:41:37.484Z,55.25
2023-03-26T00:44:05.823Z,54.74
2023-03-26T00:46:34.088Z,55.05
2023-03-26T00:49:04.236Z,55.08
2023-03-26T00:51:34.282Z,55.59
2023-03-26T00:54:02.566Z,54.87
2023-03-26T00:56:31.157Z,54.79
2023-03-26T00:59:00.448Z,54.32
2023-03-26T01:01:30.663Z,55.02
2023-03-26T01:04:19.607Z,54.80
2023-03-26T01:06:48.052Z,54.97
2023-03-26T01:09:19.352Z,54.65
2023-03-26T01:11:50.231Z,54.53
2023-03-26T01:14:26.238Z,54.62
2023-03-26T01:17:02.224Z,54.94
2023-03-26T01:19:53.422Z,54.33
2023-03-26T01:22:26.237Z,55.27
2023-03-26T01:24:56.841Z,55.00
2023-03-26T01:27:39.668Z,54.73
2023-03-26T01:30:34.022Z,55.10
2023-03-26T01:33:14.398Z,55.31
2023-03-26T01:35:48.893Z,54.94
2023-03-26T01:38:28.501Z,54.98
2023-03-26T01:41:05.251Z,54.98
2023-03-26T01:44:11.875Z,55.05
2023-03-26T01:46:41.079Z,55.53
2023-03-26T01:49:13.849Z,55.65
2023-03-26T01:51:43.398Z,55.46
2023-03-26T01:54:17.290Z,56.64
2023-03-26T01:57:00.095Z,56.94
2023-03-26T01:59:37.428Z,56.20
2023-03-26T02:02:17.517Z,55.72
2023-03-26T02:05:22.276Z,55.99
2023-03-26T02:08:09.909Z,56.81
2023-03-26T02:10:44.851Z,56.13
2023-03-26T02:13:14.023Z,56.27
2023-03-26T02:15:54.538Z,56.81
2023-03-26T02:18:24.420Z,57.32
2023-03-26T02:20:56.095Z,57.12
2023-03-26T02:23:24.175Z,56.67
2023-03-26T02:25:53.256Z,56.97
2023-03-26T02:28:21.931Z,57.18
2023-03-26T02:30:50.730Z,57.15
2023-03-26T02:33:18.908Z,56.84
2023-03-26T02:35:47.177Z,57.51
2023-03-26T02:38:15.241Z,57.85
2023-03-26T02:40:43.952Z,57.92
2023-03-26T02:43:11.926Z,57.64
2023-03-26T02:45:41.066Z,57.53
2023-03-26T02:48:27.320Z,57.51
2023-03-26T02:51:03.965Z,58.09
2023-03-26T02:53:50.043Z,57.61
2023-03-26T02:56:41.336Z,57.23
2023-03-26T02:59:26.537Z,57.75
2023-03-26T03:02:29.619Z,57.38
2023-03-26T03:05:06.136Z,57.60
2023-03-26T03:07:38.177Z,57.23
2023-03-26T03:10:14.136Z,57.50
2023-03-26T03:13:08.377Z,57.11
2023-03-26T03:15:36.299Z,56.95
2023-03-26T03:18:04.667Z,57.64
2023-03-26T03:20:35.486Z,57.36
2023-03-26T03:23:03.736Z,57.79
2023-03-26T03:25:32.845Z,57.77
2023-03-26T03:28:01.997Z,57.73
2023-03-26T03:30:29.937Z,58.04
2023-03-26T03:33:21.651Z,58.08
2023-03-26T03:35:50.991Z,57.76
2023-03-26T03:38:20.021Z,57.24
2023-03-26T03:40:51.436Z,57.82
2023-03-26T03:43:20.163Z,56.99
2023-03-26T03:46:04.240Z,57.25
2023-03-26T03:48:39.410Z,57.03
2023-03-26T03:51:08.886Z,56.84
2023-03-26T03:53:57.743Z,56.28
2023-03-26T03:57:02.473Z,56.90
2023-03-26T03:59:31.049Z,56.15
2023-03-26T04:01:59.034Z,56.67
2023-03-26T04:04:34.653Z,55.99
2023-03-26T04:07:07.003Z,55.87
2023-03-26T04:09:53.980Z,55.75
2023-03-26T04:12:24.341Z,55.46
2023-03-26T04:15:02.409Z,55.59
2023-03-26T04:17:31.810Z,54.98
2023-03-26T04:20:13.547Z,54.95
2023-03-26T04:22:43.599Z,54.58
2023-03-26T04:25:15.785Z,54.81
2023-03-26T04:27:48.608Z,54.45
2023-03-26T04:30:23.598Z,54.45
2023-03-26T04:33:15.748Z,54.05
2023-03-26T04:35:45.831Z,54.42
2023-03-26T04:38:17.192Z,54.09
2023-03-26T04:40:48.820Z,54.41
2023-03-26T04:43:36.954Z,54.66
2023-03-26T04:46:27.034Z,54.57
2023-03-26T04:49:06.881Z,54.05
2023-03-26T04:51:42.270Z,53.98
2023-03-26T04:54:36.273Z,54.06
2023-03-26T04:57:34.379Z,53.67
2023-03-26T05:00:20.557Z,53.88
2023-03-26T05:02:58.142Z,53.95
2023-03-26T05:05:28.226Z,54.35
2023-03-26T05:07:59.391Z,54.63
2023-03-26T05:10:27.533Z,54.69
2023-03-26T05:13:01.708Z,54.63
2023-03-26T05:15:36.251Z,54.79
2023-03-26T05:18:10.986Z,54.62
2023-03-26T05:20:42.536Z,54.96
2023-03-26T05:23:11.559Z,54.45
2023-03-26T05:25:45.234Z,54.63
2023-03-26T05:28:19.572Z,54.56
2023-03-26T05:30:57.641Z,53.86
2023-03-26T05:33:29.154Z,54.39
2023-03-26T05:36:16.115Z,53.88
2023-03-26T05:39:07.002Z,53.38
2023-03-26T05:42:13.055Z,53.10
2023-03-26T05:44:56.416Z,52.64
2023-03-26T05:47:28.360Z,53.33
2023-03-26T05:49:57.440Z,52.64
2023-03-26T05:52:26.188Z,52.25
2023-03-26T05:55:13.712Z,52.42
2023-03-26T05:58:00.209Z,52.36
2023-03-26T06:00:48.984Z,52.06
2023-03-26T06:03:29.495Z,51.52
2023-03-26T06:05:58.060Z,51.67
2023-03-26T06:08:40.028Z,51.66
2023-03-26T06:11:08.698Z,51.61
2023-03-26T06:13:40.138Z,51.20
2023-03-26T06:16:10.189Z,50.73
2023-03-26T06:19:11.082Z,50.67
2023-03-26T06:22:02.220Z,50.26
2023-03-26T06:24:35.174Z,50.21
2023-03-26T06:27:22.072Z,49.89
2023-03-26T06:30:09.113Z,49.41
2023-03-26T06:33:09.875Z,48.86
2023-03-26T06:35:45.750Z,48.72
2023-03-26T06:38:16.040Z,48.54
2023-03-26T06:40:44.918Z,47.43
2023-03-26T06:43:36.618Z,46.96
2023-03-26T06:46:36.910Z,46.82
2023-03-26T06:49:23.358Z,46.92
2023-03-26T06:52:11.709Z,46.92
2023-03-26T06:54:50.442Z,46.42
2023-03-26T06:57:49.421Z,45.68
2023-03-26T07:00:54.097Z,44.83
2023-03-26T07:03:40.808Z,45.37
2023-03-26T07:06:27.772Z,44.73
2023-03-26T07:09:14.111Z,44.60
2023-03-26T07:12:00.733Z,43.93
2023-03-26T07:14:51.486Z,43.96
2023-03-26T07:17:38.755Z,43.61
2023-03-26T07:20:20.352Z,43.58
2023-03-26T07:22:49.694Z,43.70
2023-03-26T07:25:42.628Z,43.60
2023-03-26T07:28:17.476Z,43.55
2023-03-26T07:31:18.709Z,43.21
2023-03-26T07:34:14.591Z,42.92
2023-03-26T07:37:01.515Z,42.77
2023-03-26T07:39:57.926Z,42.81
2023-03-26T07:42:47.234Z,42.96
2023-03-26T07:45:45.294Z,42.71
2023-03-26T07:48:50.093Z,43.22
2023-03-26T07:51:41.586Z,43.39
2023-03-26T07:54:29.877Z,43.21
2023-03-26T07:57:35.601Z,43.33
2023-03-26T08:00:56.235Z,43.32
2023-03-26T08:03:40.333Z,43.31
2023-03-26T08:06:26.581Z,43.28
2023-03-26T08:09:06.357Z,42.94
2023-03-26T08:12:06.995Z,43.09
2023-03-26T08:15:03.639Z,41.80
2023-03-26T08:18:03.657Z,41.90
2023-03-26T08:20:49.388Z,41.97
2023-03-26T08:23:23.853Z,41.92
2023-03-26T08:27:33.427Z,41.63
2023-03-26T08:29:56.386Z,41.59
2023-03-26T08:35:56.384Z,41.66
2023-03-26T08:38:38.678Z,41.30
2023-03-26T08:41:34.359Z,41.58
2023-03-26T08:44:14.612Z,41.10
2023-03-26T08:46:49.111Z,41.18
2023-03-26T08:49:35.573Z,41.31
2023-03-26T08:52:35.189Z,41.14
2023-03-26T08:55:22.364Z,41.79
2023-03-26T08:58:09.290Z,41.44
2023-03-26T09:00:45.972Z,41.27
2023-03-26T09:03:41.672Z,41.46
2023-03-26T09:06:40.105Z,41.06
2023-03-26T09:09:37.884Z,40.76
2023-03-26T09:12:28.497Z,40.88
2023-03-26T09:15:34.155Z,40.43
2023-03-26T09:18:19.874Z,40.30
2023-03-26T09:21:12.645Z,40.42
2023-03-26T09:24:05.863Z,40.19
2023-03-26T09:26:37.898Z,39.65
2023-03-26T09:29:33.671Z,39.56
2023-03-26T09:32:17.121Z,39.49
2023-03-26T09:34:54.132Z,39.31
2023-03-26T09:38:01.292Z,38.70
2023-03-26T09:40:37.653Z,38.99
2023-03-26T09:43:30.107Z,39.24
2023-03-26T09:46:25.093Z,38.96
2023-03-26T09:49:07.712Z,39.38
2023-03-26T09:52:07.534Z,39.10
2023-03-26T09:54:44.610Z,38.96
2023-03-26T09:57:33.762Z,39.16
2023-03-26T10:00:10.712Z,39.17
2023-03-26T10:03:09.936Z,39.01
2023-03-26T10:06:16.549Z,38.58
2023-03-26T10:09:13.760Z,39.02
2023-03-26T10:11:58.217Z,38.87
2023-03-26T10:14:42.121Z,39.11
2023-03-26T10:17:29.159Z,38.80
2023-03-26T10:19:56.857Z,38.61
2023-03-26T10:23:04.797Z,38.92
2023-03-26T10:25:54.054Z,38.95
2023-03-26T10:28:39.521Z,38.97
2023-03-26T10:31:44.887Z,38.85
2023-03-26T10:34:28.532Z,38.36
2023-03-26T10:37:16.675Z,38.29
2023-03-26T10:40:08.771Z,38.32
2023-03-26T10:42:44.184Z,38.44
2023-03-26T10:45:28.757Z,38.07
2023-03-26T10:48:08.587Z,38.34
2023-03-26T10:51:07.973Z,38.21
2023-03-26T10:54:03.072Z,38.07
2023-03-26T10:56:58.532Z,37.97
2023-03-26T10:59:27.909Z,38.31
2023-03-26T11:02:17.585Z,37.96
2023-03-26T11:05:00.616Z,38.35
2023-03-26T11:07:50.988Z,38.29
2023-03-26T11:10:48.293Z,37.87
2023-03-26T11:13:36.913Z,37.49
2023-03-26T11:16:26.362Z,37.79
2023-03-26T11:19:40.056Z,38.33
2023-03-26T11:22:26.271Z,38.11
2023-03-26T11:25:21.993Z,38.07
2023-03-26T11:27:53.346Z,38.27
2023-03-26T11:30:54.185Z,38.59
2023-03-26T11:33:33.575Z,38.99
2023-03-26T11:36:09.046Z,38.47
2023-03-26T11:38:44.875Z,38.60
2023-03-26T11:41:24.693Z,38.36
2023-03-26T11:44:17.153Z,38.26
2023-03-26T11:46:48.218Z,38.29
2023-03-26T11:49:21.137Z,38.01
2023-03-26T11:51:49.579Z,37.90
2023-03-26T11:54:18.159Z,38.06
2023-03-26T11:57:04.905Z,38.01
2023-03-26T11:59:56.992Z,38.63
2023-03-26T12:02:36.070Z,38.48
2023-03-26T12:05:26.750Z,38.45
2023-03-26T12:08:00.626Z,38.94
2023-03-26T12:10:39.611Z,38.92
2023-03-26T12:13:28.496Z,39.28
2023-03-26T12:16:01.747Z,39.34
2023-03-26T12:18:30.373Z,39.46
2023-03-26T12:21:09.647Z,39.39
2023-03-26T12:23:58.669Z,39.14
2023-03-26T12:26:42.084Z,39.08
2023-03-26T12:29:21.047Z,39.01
2023-03-26T12:31:52.397Z,39.36
2023-03-26T12:34:23.677Z,39.19
2023-03-26T12:37:01.686Z,39.10
2023-03-26T12:40:07.882Z,38.94
2023-03-26T12:44:51.010Z,38.57
2023-03-26T12:45:24.150Z,38.83
2023-03-26T12:48:00.712Z,38.68
2023-03-26T12:51:16.597Z,38.65
2023-03-26T12:54:16.421Z,38.69
2023-03-26T12:57:19.008Z,38.55
2023-03-26T12:59:52.999Z,38.81
2023-03-26T13:02:44.895Z,38.49
2023-03-26T13:05:34.486Z,38.27
2023-03-26T13:08:23.714Z,38.10
2023-03-26T13:11:17.528Z,38.32
2023-03-26T13:14:09.408Z,38.57
2023-03-26T13:16:51.956Z,38.44
2023-03-26T13:19:35.869Z,38.34
2023-03-26T13:22:15.607Z,38.34
2023-03-26T13:24:53.013Z,38.52
2023-03-26T13:27:42.486Z,38.33
2023-03-26T13:30:19.635Z,37.97
2023-03-26T13:33:21.219Z,37.68
2023-03-26T13:36:24.497Z,37.81
2023-03-26T13:39:20.627Z,37.92
2023-03-26T13:42:15.338Z,38.28
2023-03-26T13:45:05.826Z,38.64
2023-03-26T13:47:39.575Z,39.20
2023-03-26T13:50:20.927Z,39.30
2023-03-26T13:53:03.513Z,39.71
2023-03-26T13:55:47.953Z,39.75
2023-03-26T13:58:34.404Z,40.00
2023-03-26T14:01:08.401Z,40.21
2023-03-26T14:03:54.902Z,40.32
2023-03-26T14:06:46.971Z,40.61
2023-03-26T14:09:30.830Z,40.61
2023-03-26T14:12:03.160Z,40.38
2023-03-26T14:14:48.485Z,41.03
2023-03-26T14:17:16.868Z,41.12
2023-03-26T14:20:06.869Z,41.41
2023-03-26T14:22:56.177Z,41.80
2023-03-26T14:25:42.868Z,41.53
2023-03-26T14:28:16.955Z,41.50
2023-03-26T14:30:48.742Z,41.87
2023-03-26T14:33:28.313Z,41.77
2023-03-26T14:36:06.590Z,41.77
2023-03-26T14:38:59.587Z,42.29
2023-03-26T14:41:59.491Z,42.00
2023-03-26T14:45:07.243Z,42.45
2023-03-26T14:48:06.664Z,42.99
2023-03-26T14:50:54.778Z,42.74
2023-03-26T14:53:33.818Z,42.74
2023-03-26T14:56:03.456Z,42.91
2023-03-26T14:59:08.575Z,43.45
2023-03-26T15:02:04.997Z,43.52
2023-03-26T15:04:54.557Z,44.36
2023-03-26T15:07:59.467Z,44.09
2023-03-26T15:10:52.978Z,44.79
2023-03-26T15:13:56.577Z,44.82
2023-03-26T15:16:53.720Z,44.99
2023-03-26T15:20:17.062Z,44.65
2023-03-26T15:23:10.383Z,44.71
2023-03-26T15:26:05.189Z,44.52
2023-03-26T15:29:01.728Z,45.64
2023-03-26T15:32:09.921Z,45.99
2023-03-26T15:35:21.416Z,46.65
2023-03-26T15:38:00.114Z,47.16
2023-03-26T15:40:59.725Z,48.41
2023-03-26T15:44:24.207Z,48.45
2023-03-26T15:47:41.165Z,49.13
2023-03-26T15:55:06.152Z,49.75
2023-03-26T15:58:03.784Z,49.59
2023-03-26T16:01:19.294Z,50.12
2023-03-26T16:04:50.322Z,50.53
2023-03-26T16:08:13.045Z,50.27
2023-03-26T16:11:20.173Z,50.48
2023-03-26T16:18:31.222Z,51.69
2023-03-26T16:21:39.877Z,51.24
2023-03-26T16:24:45.673Z,51.51
2023-03-26T16:27:38.449Z,51.53
2023-03-26T16:30:33.542Z,51.59
2023-03-26T16:33:33.335Z,51.91
2023-03-26T16:36:36.872Z,52.57
2023-03-26T16:39:48.259Z,52.90
2023-03-26T16:42:29.464Z,53.88
2023-03-26T16:45:15.138Z,53.68
2023-03-26T16:48:01.260Z,53.59
2023-03-26T16:50:50.787Z,53.70
2023-03-26T16:53:46.824Z,54.10
2023-03-26T16:56:21.954Z,54.07
2023-03-26T16:59:03.383Z,53.65
2023-03-26T17:01:48.529Z,53.47
2023-03-26T17:04:25.173Z,53.69
2023-03-26T17:06:56.912Z,53.73
2023-03-26T17:09:31.854Z,53.62
2023-03-26T17:12:08.722Z,52.99
2023-03-26T17:15:06.271Z,52.44
2023-03-26T17:18:05.542Z,51.59
2023-03-26T17:20:52.226Z,51.17
2023-03-26T17:23:29.349Z,50.65
2023-03-26T17:26:27.205Z,50.50
2023-03-26T17:29:17.939Z,51.33
2023-03-26T17:32:01.520Z,51.56
2023-03-26T17:34:38.226Z,54.65
2023-03-26T17:37:12.017Z,56.50
2023-03-26T17:39:40.108Z,55.03
2023-03-26T17:42:26.631Z,56.06
2023-03-26T17:44:59.448Z,56.73
2023-03-26T17:47:35.025Z,57.29
2023-03-26T17:50:16.480Z,57.37
2023-03-26T17:52:51.789Z,56.20
2023-03-26T17:55:23.261Z,55.71
2023-03-26T17:57:56.967Z,55.43
2023-03-26T18:00:31.469Z,55.94
2023-03-26T18:03:07.391Z,56.41
2023-03-26T18:05:39.683Z,57.08
2023-03-26T18:08:30.324Z,58.21
2023-03-26T18:11:33.327Z,58.28
2023-03-26T18:14:16.559Z,58.20
2023-03-26T18:16:48.443Z,58.60
2023-03-26T18:19:23.190Z,58.89
2023-03-26T18:21:54.012Z,58.58
2023-03-26T18:24:40.252Z,59.28
2023-03-26T18:27:21.046Z,59.25
2023-03-26T18:30:02.831Z,59.82
2023-03-26T18:32:34.024Z,59.99
2023-03-26T18:35:17.257Z,60.67
2023-03-26T18:37:46.384Z,60.21
2023-03-26T18:40:20.348Z,61.03
2023-03-26T18:42:57.947Z,61.22
2023-03-26T18:45:30.374Z,60.83
2023-03-26T18:48:01.745Z,60.83
2023-03-26T18:50:40.218Z,60.67
2023-03-26T18:53:30.704Z,61.68
2023-03-26T18:55:59.264Z,61.48
2023-03-26T18:58:34.662Z,60.95
2023-03-26T19:01:19.943Z,61.23
2023-03-26T19:03:49.238Z,61.65
2023-03-26T19:06:17.998Z,61.57
2023-03-26T19:08:47.149Z,61.42
2023-03-26T19:11:17.937Z,60.76
2023-03-26T19:13:58.878Z,61.04
2023-03-26T19:16:33.978Z,61.66
2023-03-26T19:19:05.526Z,62.18
2023-03-26T19:21:36.452Z,62.31
2023-03-26T19:24:05.927Z,62.36
2023-03-26T19:26:34.626Z,62.05
2023-03-26T19:29:04.222Z,62.02
2023-03-26T19:31:35.588Z,61.52
2023-03-26T19:34:14.506Z,61.70
2023-03-26T19:37:23.074Z,61.43
2023-03-26T19:39:54.040Z,60.92
2023-03-26T19:42:43.918Z,61.22
2023-03-26T19:45:23.365Z,62.35
2023-03-26T19:48:03.521Z,61.19
2023-03-26T19:50:42.473Z,60.92
2023-03-26T19:53:17.963Z,60.21
2023-03-26T19:55:57.919Z,60.10
2023-03-26T19:58:27.827Z,60.47
2023-03-26T20:00:56.706Z,60.53
2023-03-26T20:03:29.800Z,60.61
2023-03-26T20:05:58.032Z,60.55
2023-03-26T20:08:29.488Z,60.41
2023-03-26T20:10:58.619Z,60.83
2023-03-26T20:13:27.504Z,60.09
2023-03-26T20:16:06.060Z,59.70
2023-03-26T20:18:35.323Z,59.47
2023-03-26T20:21:10.701Z,59.56
2023-03-26T20:23:40.536Z,60.38
2023-03-26T20:26:16.951Z,60.56
2023-03-26T20:28:48.363Z,60.47
2023-03-26T20:31:23.870Z,60.34
2023-03-26T20:33:54.701Z,60.07
2023-03-26T20:36:33.687Z,59.80
2023-03-26T20:48:37.845Z,61.07
2023-03-26T20:51:43.172Z,60.90
2023-03-26T21:00:04.928Z,61.32
2023-03-26T21:04:01.596Z,61.44
2023-03-26T21:06:32.713Z,62.00
2023-03-26T21:09:03.295Z,61.65
2023-03-26T21:11:56.067Z,61.56
2023-03-26T21:14:41.793Z,61.75
2023-03-26T21:17:20.409Z,61.93
2023-03-26T21:19:49.777Z,62.42
2023-03-26T21:22:32.967Z,62.32
2023-03-26T21:25:00.964Z,61.94
2023-03-26T21:28:00.635Z,62.00
2023-03-26T21:30:30.511Z,62.61
2023-03-26T21:32:59.972Z,62.70
2023-03-26T21:35:28.512Z,62.80
2023-03-26T21:37:58.009Z,62.42
2023-03-26T21:40:26.365Z,62.90
2023-03-26T21:42:55.130Z,62.54
2023-03-26T21:45:23.328Z,62.10
2023-03-26T21:47:51.919Z,62.57
2023-03-26T21:50:23.163Z,62.98
2023-03-26T21:52:52.258Z,62.59
2023-03-26T21:55:24.875Z,62.75
2023-03-26T21:58:02.750Z,62.94
2023-03-26T22:00:43.763Z,63.43
2023-03-26T22:03:26.113Z,63.28
2023-03-26T22:06:07.581Z,63.27
2023-03-26T22:08:41.088Z,64.12
2023-03-26T22:11:11.589Z,64.20
2023-03-26T22:13:40.020Z,63.75
2023-03-26T22:16:10.916Z,64.00
2023-03-26T22:18:39.468Z,63.86
2023-03-26T22:21:07.920Z,64.34
2023-03-26T22:23:37.371Z,64.13
2023-03-26T22:26:06.218Z,64.05
2023-03-26T22:28:34.544Z,64.19
2023-03-26T22:31:11.100Z,64.23
2023-03-26T22:33:40.428Z,64.51
2023-03-26T22:36:22.701Z,64.81
2023-03-26T22:38:54.263Z,65.12
2023-03-26T22:41:23.149Z,65.19
2023-03-26T22:43:54.893Z,65.73
2023-03-26T22:46:23.922Z,65.38
2023-03-26T22:48:52.730Z,65.80
2023-03-26T22:51:20.847Z,65.66
2023-03-26T22:53:49.275Z,65.84
2023-03-26T22:56:17.445Z,65.91
2023-03-26T22:58:47.857Z,65.74
2023-03-26T23:01:19.464Z,65.03
2023-03-26T23:03:48.104Z,65.58
2023-03-26T23:06:16.403Z,65.73
2023-03-26T23:08:44.601Z,65.71
2023-03-26T23:11:15.052Z,66.07
2023-03-26T23:13:44.776Z,65.84
2023-03-26T23:16:13.556Z,65.95
2023-03-26T23:18:42.088Z,65.93
2023-03-26T23:21:15.655Z,65.73
2023-03-26T23:23:44.080Z,66.43
2023-03-26T23:26:12.279Z,66.38
2023-03-26T23:28:41.267Z,66.02
2023-03-26T23:31:13.586Z,66.32
2023-03-26T23:33:46.412Z,66.78
2023-03-26T23:36:18.726Z,66.69
2023-03-26T23:38:48.797Z,66.83
2023-03-26T23:41:21.812Z,66.08
2023-03-26T23:43:53.413Z,66.11
2023-03-26T23:46:25.587Z,65.83
2023-03-26T23:48:55.197Z,66.10
2023-03-26T23:51:24.302Z,66.43
2023-03-26T23:53:53.853Z,66.22
2023-03-26T23:56:22.082Z,66.08
2023-03-26T23:58:50.278Z,66.29
